Terminal Aerodrome Forecast
Issued by NWS Bismarck, ND

Home | Current Version | Previous Version | Graphics & Text | Print | Product List | Glossary On
Versions: 1 2 3 4 5 6 7 8 9 10 11 12 13 14 15 16 17 18 19
000
FTUS43 KBIS 210500
TAFBIS
TAF
KBIS 210530Z 2106/2206 12005KT P6SM SCT150
     FM211400 15008KT P6SM SCT090 BKN120
     FM212100 14012KT P6SM SCT040 BKN070
     FM220300 11008KT P6SM VCSH BKN035 OVC050=

USA.gov is the U.S. government's official web portal to all federal, state and local government web resources and services.